DW4776 Weather Reports


time (UTC)temp
C
wind
direction
speed
KPH
gust
KPH
rain 1hr
cm
rain 24hr
cm
rain mn
cm
humidity
%
barometer
mb
20221207223107 -6 0 0.0 0.0 0.00 0.00 0.00 87 1009.7
20221207221306 -7 0 0.0 0.0 0.00 0.00 0.00 87 1009.2
20221207220407 -7 0 0.0 0.0 0.00 0.00 0.00 86 1009.3
20221207215507 -7 118 0.0 11.3 0.00 0.00 0.00 88 1009.3
20221207213707 -8 0 0.0 0.0 0.00 0.00 0.00 86 1009.0
20221207211907 -10 92 4.8 11.3 0.00 0.00 0.00 86 1009.0
20221207210107 -9 108 4.8 11.3 0.00 0.00 0.00 83 1008.9
20221207205206 -7 80 0.0 9.7 0.00 0.00 0.00 85 1009.1
20221207204306 -7 80 1.6 9.7 0.00 0.00 0.00 86 1009.0
20221207203407 -7 104 6.4 12.9 0.00 0.00 0.00 85 1008.9
20221207202506 -7 80 3.2 12.9 0.00 0.00 0.00 86 1008.8
20221207201607 -7 79 0.0 1.6 0.00 0.00 0.00 85 1008.7
20221207200707 -6 79 3.2 16.1 0.00 0.00 0.00 82 1008.5
20221207195806 -4 80 4.8 17.7 0.00 0.00 0.00 85 1008.6
20221207194907 -4 90 3.2 19.3 0.00 0.00 0.00 88 1008.6
20221207194006 -5 0 0.0 0.0 0.00 0.00 0.00 87 1008.8
20221207193106 -5 0 0.0 0.0 0.00 0.00 0.00 88 1008.7
20221207184606 -10 118 0.0 4.8 0.00 0.00 0.00 88 1008.8
20221207182806 -11 79 0.0 1.6 0.00 0.00 0.00 87 1009.2
20221207181906 -12 79 0.0 3.2 0.00 0.00 0.00 88 1009.2
20221207181006 -12 94 0.0 4.8 0.00 0.00 0.00 86 1009.5
20221207180106 -12 118 0.0 4.8 0.00 0.00 0.00 86 1009.5
20221207175206 -12 118 0.0 4.8 0.00 0.00 0.00 87 1009.4
20221207174306 -12 118 0.0 1.6 0.00 0.00 0.00 89 1009.3
20221207173406 -15 118 0.0 1.6 0.00 0.00 0.00 87 1009.3
20221207172506 -17 118 0.0 8.0 0.00 0.00 0.00 84 1009.2
20221207171606 -17 118 0.0 6.4 0.00 0.00 0.00 83 1009.2
20221207170706 -16 0 0.0 0.0 0.00 0.00 0.00 85 1009.0
20221207165806 -17 0 0.0 0.0 0.00 0.00 0.00 85 1009.1
20221207164906 -18 0 0.0 0.0 0.00 0.00 0.00 84 1009.2
20221207164006 -19 0 0.0 0.0 0.00 0.00 0.00 84 1009.1
20221207163106 -20 0 0.0 0.0 0.00 0.00 0.00 83 1009.0
20221207155506 -20 118 0.0 1.6 0.00 0.00 0.00 82 1009.1
20221207154606 -19 0 0.0 0.0 0.00 0.00 0.00 83 1009.1
20221207153706 -18 0 0.0 0.0 0.00 0.00 0.00 83 1009.0
20221207152806 -18 0 0.0 0.0 0.00 0.00 0.00 84 1008.8
20221207151006 -21 48 9.7 17.7 0.00 0.00 0.00 82 1008.3
20221207150106 -21 48 9.7 17.7 0.00 0.00 0.00 82 1008.3
20221207144306 -21 48 9.7 17.7 0.00 0.00 0.00 82 1008.0
20221207143406 -21 48 9.7 17.7 0.00 0.00 0.00 82 1007.8
20221207142506 -21 48 9.7 17.7 0.00 0.00 0.00 82 1007.9
20221207141606 -21 48 9.7 17.7 0.00 0.00 0.00 82 1008.0
20221207140706 -21 48 9.7 17.7 0.00 0.00 0.00 82 1008.0
20221207134906 -21 48 9.7 17.7 0.00 0.00 0.00 82 1008.0
20221207134006 -21 48 9.7 17.7 0.00 0.00 0.00 82 1008.1
20221207133106 -21 48 9.7 17.7 0.00 0.00 0.00 82 1007.8
20221207132206 -21 48 9.7 17.7 0.00 0.00 0.00 82 1008.0
20221207131306 -21 48 9.7 17.7 0.00 0.00 0.00 82 1007.7
20221207130406 -21 48 9.7 17.7 0.00 0.00 0.00 82 1007.3
20221207125506 -21 48 9.7 17.7 0.00 0.00 0.00 82 1007.3
20221207124606 -21 48 9.7 17.7 0.00 0.00 0.00 82 1007.4
20221207123706 -21 48 9.7 17.7 0.00 0.00 0.00 82 1007.4
20221207122806 -21 48 9.7 17.7 0.00 0.00 0.00 82 1007.4
20221207121906 -21 48 8.0 17.7 0.00 0.00 0.00 82 1007.6
20221207121006 -21 47 8.0 12.9 0.00 0.00 0.00 82 1007.5
20221207120106 -22 47 3.2 9.7 0.00 0.00 0.00 82 1007.8
20221207115206 -22 47 0.0 4.8 0.00 0.00 0.00 82 1007.9
20221207114306 -22 48 0.0 1.6 0.00 0.00 0.00 82 1008.1
20221207113406 -22 47 0.0 4.8 0.00 0.00 0.00 82 1007.9
20221207112506 -22 48 3.2 9.7 0.00 0.00 0.00 82 1008.3
20221207111606 -22 47 0.0 4.8 0.00 0.00 0.00 82 1008.3
20221207110706 -22 47 1.6 4.8 0.00 0.00 0.00 82 1008.5
20221207105806 -22 47 1.6 8.0 0.00 0.00 0.00 82 1008.4
20221207104906 -22 0 0.0 0.0 0.00 0.00 0.00 81 1008.7
20221207104006 -23 0 0.0 0.0 0.00 0.00 0.00 81 1008.8
20221207103106 -23 0 0.0 0.0 0.00 0.00 0.00 81 1009.0
20221207102206 -23 0 0.0 0.0 0.00 0.00 0.00 81 1009.0
20221207101306 -23 0 0.0 0.0 0.00 0.00 0.00 81 1009.3
20221207100406 -23 0 0.0 0.0 0.00 0.00 0.00 81 1009.2
20221207095506 -23 0 0.0 0.0 0.00 0.00 0.00 80 1009.4
20221207094606 -23 0 0.0 0.0 0.00 0.00 0.00 81 1009.4
20221207093706 -22 0 0.0 0.0 0.00 0.00 0.00 81 1009.6
20221207091905 -22 0 0.0 0.0 0.00 0.00 0.00 81 1009.6
20221207091006 -21 47 0.0 1.6 0.00 0.00 0.00 81 1009.5
20221207090106 -21 0 0.0 0.0 0.00 0.00 0.00 81 1009.6
20221207084305 -21 0 0.0 0.0 0.00 0.00 0.00 82 1009.7
20221207083405 -21 47 0.0 1.6 0.00 0.00 0.00 81 1009.8
20221207082505 -21 47 0.0 1.6 0.00 0.00 0.00 82 1009.6
20221207075805 -20 48 0.0 3.2 0.00 0.00 0.00 82 1010.3
20221207073105 -20 0 0.0 0.0 0.00 0.00 0.00 82 1010.5
20221207072206 -21 0 0.0 0.0 0.00 0.00 0.00 82 1010.7
20221207071305 -21 0 0.0 0.0 0.00 0.00 0.00 82 1010.6
20221207070406 -21 0 0.0 0.0 0.00 0.00 0.00 82 1010.5
20221207065505 -21 0 0.0 0.0 0.00 0.00 0.00 82 1010.5
20221207064606 -21 0 0.0 0.0 0.00 0.00 0.00 82 1010.7
20221207063705 -21 0 0.0 0.0 0.00 0.00 0.00 82 1010.9
20221207062805 -21 0 0.0 0.0 0.00 0.00 0.00 82 1010.8
20221207061905 -21 0 0.0 0.0 0.00 0.00 0.00 82 1010.8
20221207061005 -21 0 0.0 0.0 0.00 0.00 0.00 82 1010.8
20221207060106 -21 0 0.0 0.0 0.00 0.00 0.00 82 1011.0
20221207055206 -21 0 0.0 0.0 0.00 0.00 0.00 82 1011.0
20221207054305 -21 0 0.0 0.0 0.00 0.00 0.00 82 1010.8
20221207053405 -21 0 0.0 0.0 0.00 0.00 0.00 82 1011.2
20221207052505 -21 0 0.0 0.0 0.00 0.00 0.00 82 1011.1
20221207051605 -21 0 0.0 0.0 0.00 0.00 0.00 82 1011.3
20221207050705 -21 0 0.0 0.0 0.00 0.00 0.00 82 1011.3
20221207045805 -21 0 0.0 0.0 0.00 0.00 0.00 82 1011.1
20221207044905 -21 47 0.0 1.6 0.00 0.00 0.00 82 1011.2
20221207044005 -22 47 0.0 6.4 0.00 0.00 0.00 81 1011.3
20221207043105 -22 47 0.0 8.0 0.00 0.00 0.00 81 1011.4
20221207042205 -22 47 0.0 6.4 0.00 0.00 0.00 81 1011.2
20221207040405 -22 47 4.8 12.9 0.00 0.00 0.00 81 1011.1
20221207035505 -22 47 4.8 11.3 0.00 0.00 0.00 81 1011.2
20221207034605 -22 48 3.2 11.3 0.00 0.00 0.00 81 1011.0
20221207033705 -22 47 4.8 12.9 0.00 0.00 0.00 81 1010.8
20221207032805 -22 47 6.4 12.9 0.00 0.00 0.00 81 1010.8
20221207031905 -22 47 6.4 12.9 0.00 0.00 0.00 81 1010.9
20221207031005 -22 47 3.2 12.9 0.00 0.00 0.00 81 1010.7
20221207030105 -22 47 3.2 11.3 0.00 0.00 0.00 81 1010.7
20221207025205 -22 46 1.6 11.3 0.00 0.00 0.00 81 1010.9
20221207023405 -22 47 1.6 11.3 0.00 0.00 0.00 81 1010.8
20221207022505 -22 46 4.8 12.9 0.00 0.00 0.00 81 1010.8
20221207021605 -22 46 4.8 12.9 0.00 0.00 0.00 81 1010.6
20221207020705 -22 46 8.0 14.5 0.00 0.00 0.00 81 1010.6
20221207015805 -22 46 4.8 16.1 0.00 0.00 0.00 81 1010.4
20221207014905 -22 46 8.0 16.1 0.00 0.00 0.00 81 1010.5
20221207014005 -21 46 8.0 17.7 0.00 0.00 0.00 81 1010.7
20221207012205 -22 46 9.7 14.5 0.00 0.00 0.00 81 1010.3
20221207011305 -21 46 6.4 16.1 0.00 0.00 0.00 81 1010.0
20221207010405 -21 46 6.4 14.5 0.00 0.00 0.00 81 1010.2
20221207005505 -21 46 6.4 12.9 0.00 0.00 0.00 81 1010.0
20221207004605 -21 46 6.4 12.9 0.00 0.00 0.00 81 1010.0
20221207002805 -22 46 8.0 14.5 0.00 0.00 0.00 81 1010.1
20221207001905 -22 46 8.0 14.5 0.00 0.00 0.00 81 1010.1
20221207001005 -21 46 8.0 14.5 0.00 0.00 0.00 81 1010.1
20221207000105 -21 46 8.0 16.1 0.00 0.00 0.00 81 1010.0
20221206233405 -21 47 8.0 14.5 0.00 0.00 0.00 81 1010.0
20221206232505 -21 47 8.0 14.5 0.00 0.00 0.00 82 1009.8
20221206231605 -21 47 9.7 16.1 0.00 0.00 0.00 82 1009.6
20221206230705 -21 47 8.0 16.1 0.00 0.00 0.00 81 1009.6
20221206225805 -21 47 9.7 16.1 0.00 0.00 0.00 82 1009.5